sensor_id;sensor_type;location;lat;lon;timestamp;P1;durP1;ratioP1;P2;durP2;ratioP2
47053;SDS011;32811;52.382;5.270;2022-07-23T00:00:08;1.77;;;0.88;;
47053;SDS011;32811;52.382;5.270;2022-07-23T00:02:36;3.20;;;0.95;;
47053;SDS011;32811;52.382;5.270;2022-07-23T00:05:03;3.85;;;0.90;;
47053;SDS011;32811;52.382;5.270;2022-07-23T00:07:29;2.47;;;0.90;;
47053;SDS011;32811;52.382;5.270;2022-07-23T00:09:56;0.95;;;0.60;;
47053;SDS011;32811;52.382;5.270;2022-07-23T00:12:22;3.88;;;0.90;;
47053;SDS011;32811;52.382;5.270;2022-07-23T00:14:49;0.75;;;0.68;;
47053;SDS011;32811;52.382;5.270;2022-07-23T00:17:16;2.22;;;0.70;;
47053;SDS011;32811;52.382;5.270;2022-07-23T00:19:44;2.22;;;1.00;;
47053;SDS011;32811;52.382;5.270;2022-07-23T00:22:10;1.10;;;0.70;;
47053;SDS011;32811;52.382;5.270;2022-07-23T00:24:37;2.35;;;0.70;;
47053;SDS011;32811;52.382;5.270;2022-07-23T00:27:03;1.45;;;0.70;;
47053;SDS011;32811;52.382;5.270;2022-07-23T00:29:30;0.82;;;0.70;;
47053;SDS011;32811;52.382;5.270;2022-07-23T00:31:57;1.55;;;0.73;;
47053;SDS011;32811;52.382;5.270;2022-07-23T00:34:23;0.75;;;0.60;;
47053;SDS011;32811;52.382;5.270;2022-07-23T00:36:50;1.50;;;0.70;;
47053;SDS011;32811;52.382;5.270;2022-07-23T00:39:20;0.90;;;0.60;;
47053;SDS011;32811;52.382;5.270;2022-07-23T00:41:51;2.97;;;0.80;;
47053;SDS011;32811;52.382;5.270;2022-07-23T00:44:19;1.70;;;0.68;;
47053;SDS011;32811;52.382;5.270;2022-07-23T00:46:48;1.15;;;0.70;;
47053;SDS011;32811;52.382;5.270;2022-07-23T00:49:29;2.33;;;0.80;;
47053;SDS011;32811;52.382;5.270;2022-07-23T00:51:56;3.05;;;1.02;;
47053;SDS011;32811;52.382;5.270;2022-07-23T00:54:25;1.25;;;0.80;;
47053;SDS011;32811;52.382;5.270;2022-07-23T00:56:53;1.65;;;0.80;;
47053;SDS011;32811;52.382;5.270;2022-07-23T00:59:20;1.13;;;0.90;;
47053;SDS011;32811;52.382;5.270;2022-07-23T01:01:47;1.33;;;0.70;;
47053;SDS011;32811;52.382;5.270;2022-07-23T01:04:15;1.30;;;0.90;;
47053;SDS011;32811;52.382;5.270;2022-07-23T01:06:44;1.10;;;0.95;;
47053;SDS011;32811;52.382;5.270;2022-07-23T01:09:11;1.80;;;0.82;;
47053;SDS011;32811;52.382;5.270;2022-07-23T01:11:38;0.73;;;0.60;;
47053;SDS011;32811;52.382;5.270;2022-07-23T01:14:07;1.95;;;0.80;;
47053;SDS011;32811;52.382;5.270;2022-07-23T01:16:39;1.80;;;0.70;;
47053;SDS011;32811;52.382;5.270;2022-07-23T01:19:08;0.70;;;0.65;;
47053;SDS011;32811;52.382;5.270;2022-07-23T01:21:36;1.27;;;1.17;;
47053;SDS011;32811;52.382;5.270;2022-07-23T01:24:04;2.85;;;0.90;;
47053;SDS011;32811;52.382;5.270;2022-07-23T01:26:32;2.25;;;0.70;;
47053;SDS011;32811;52.382;5.270;2022-07-23T01:28:58;0.90;;;0.77;;
47053;SDS011;32811;52.382;5.270;2022-07-23T01:31:26;3.78;;;0.95;;
47053;SDS011;32811;52.382;5.270;2022-07-23T01:33:56;1.58;;;0.85;;
47053;SDS011;32811;52.382;5.270;2022-07-23T01:36:25;1.23;;;0.70;;
47053;SDS011;32811;52.382;5.270;2022-07-23T01:38:52;2.53;;;0.70;;
47053;SDS011;32811;52.382;5.270;2022-07-23T01:41:19;1.73;;;0.90;;
47053;SDS011;32811;52.382;5.270;2022-07-23T01:43:46;2.15;;;0.70;;
47053;SDS011;32811;52.382;5.270;2022-07-23T01:46:12;1.95;;;0.90;;
47053;SDS011;32811;52.382;5.270;2022-07-23T01:48:39;2.08;;;0.90;;
47053;SDS011;32811;52.382;5.270;2022-07-23T01:51:06;0.85;;;0.70;;
47053;SDS011;32811;52.382;5.270;2022-07-23T01:53:33;1.10;;;0.60;;
47053;SDS011;32811;52.382;5.270;2022-07-23T01:56:00;2.53;;;0.90;;
47053;SDS011;32811;52.382;5.270;2022-07-23T01:58:27;1.60;;;0.80;;
47053;SDS011;32811;52.382;5.270;2022-07-23T02:00:54;0.85;;;0.52;;
47053;SDS011;32811;52.382;5.270;2022-07-23T02:03:21;0.95;;;0.75;;
47053;SDS011;32811;52.382;5.270;2022-07-23T02:05:48;0.93;;;0.70;;
47053;SDS011;32811;52.382;5.270;2022-07-23T02:08:15;2.40;;;0.80;;
47053;SDS011;32811;52.382;5.270;2022-07-23T02:10:42;2.13;;;0.90;;
47053;SDS011;32811;52.382;5.270;2022-07-23T02:13:09;0.73;;;0.70;;
47053;SDS011;32811;52.382;5.270;2022-07-23T02:15:38;1.90;;;0.80;;
47053;SDS011;32811;52.382;5.270;2022-07-23T02:18:04;1.00;;;0.73;;
47053;SDS011;32811;52.382;5.270;2022-07-23T02:20:31;1.27;;;0.68;;
47053;SDS011;32811;52.382;5.270;2022-07-23T02:22:57;2.10;;;0.70;;
47053;SDS011;32811;52.382;5.270;2022-07-23T02:25:24;1.58;;;0.68;;
47053;SDS011;32811;52.382;5.270;2022-07-23T02:27:51;1.20;;;0.90;;
47053;SDS011;32811;52.382;5.270;2022-07-23T02:30:17;0.90;;;0.80;;
47053;SDS011;32811;52.382;5.270;2022-07-23T02:32:44;1.55;;;0.98;;
47053;SDS011;32811;52.382;5.270;2022-07-23T02:35:10;2.67;;;1.00;;
47053;SDS011;32811;52.382;5.270;2022-07-23T02:37:37;4.10;;;1.27;;
47053;SDS011;32811;52.382;5.270;2022-07-23T02:40:04;1.20;;;1.00;;
47053;SDS011;32811;52.382;5.270;2022-07-23T02:42:31;3.92;;;0.90;;
47053;SDS011;32811;52.382;5.270;2022-07-23T02:44:57;3.72;;;1.55;;
47053;SDS011;32811;52.382;5.270;2022-07-23T02:47:24;3.22;;;1.35;;
47053;SDS011;32811;52.382;5.270;2022-07-23T02:49:50;4.07;;;1.85;;
47053;SDS011;32811;52.382;5.270;2022-07-23T02:52:17;1.10;;;1.00;;
47053;SDS011;32811;52.382;5.270;2022-07-23T02:54:43;1.60;;;1.10;;
47053;SDS011;32811;52.382;5.270;2022-07-23T02:57:10;1.17;;;1.00;;
47053;SDS011;32811;52.382;5.270;2022-07-23T02:59:36;1.40;;;0.93;;
47053;SDS011;32811;52.382;5.270;2022-07-23T03:02:03;1.83;;;1.25;;
47053;SDS011;32811;52.382;5.270;2022-07-23T03:04:29;2.70;;;1.20;;
47053;SDS011;32811;52.382;5.270;2022-07-23T03:06:56;1.52;;;1.13;;
47053;SDS011;32811;52.382;5.270;2022-07-23T03:09:23;1.83;;;1.30;;
47053;SDS011;32811;52.382;5.270;2022-07-23T03:11:49;1.73;;;1.13;;
47053;SDS011;32811;52.382;5.270;2022-07-23T03:14:16;1.38;;;0.88;;
47053;SDS011;32811;52.382;5.270;2022-07-23T03:16:42;3.63;;;1.30;;
47053;SDS011;32811;52.382;5.270;2022-07-23T03:19:09;3.05;;;1.40;;
47053;SDS011;32811;52.382;5.270;2022-07-23T03:21:36;1.45;;;1.10;;
47053;SDS011;32811;52.382;5.270;2022-07-23T03:24:09;4.53;;;1.20;;
47053;SDS011;32811;52.382;5.270;2022-07-23T03:26:36;3.03;;;0.98;;
47053;SDS011;32811;52.382;5.270;2022-07-23T03:29:03;1.40;;;1.30;;
47053;SDS011;32811;52.382;5.270;2022-07-23T03:31:30;1.50;;;0.90;;
47053;SDS011;32811;52.382;5.270;2022-07-23T03:33:57;1.90;;;0.82;;
47053;SDS011;32811;52.382;5.270;2022-07-23T03:36:24;3.67;;;1.23;;
47053;SDS011;32811;52.382;5.270;2022-07-23T03:38:51;1.85;;;1.08;;
47053;SDS011;32811;52.382;5.270;2022-07-23T03:41:19;2.83;;;1.05;;
47053;SDS011;32811;52.382;5.270;2022-07-23T03:43:46;2.50;;;1.40;;
47053;SDS011;32811;52.382;5.270;2022-07-23T03:46:13;1.73;;;1.10;;
47053;SDS011;32811;52.382;5.270;2022-07-23T03:48:39;4.32;;;1.05;;
47053;SDS011;32811;52.382;5.270;2022-07-23T03:51:06;3.50;;;1.27;;
47053;SDS011;32811;52.382;5.270;2022-07-23T03:53:33;2.00;;;0.85;;
47053;SDS011;32811;52.382;5.270;2022-07-23T03:56:00;1.58;;;1.25;;
47053;SDS011;32811;52.382;5.270;2022-07-23T03:58:26;1.10;;;0.90;;
47053;SDS011;32811;52.382;5.270;2022-07-23T04:00:53;1.60;;;0.70;;
47053;SDS011;32811;52.382;5.270;2022-07-23T04:03:19;1.38;;;0.90;;
47053;SDS011;32811;52.382;5.270;2022-07-23T04:05:46;4.30;;;1.00;;
47053;SDS011;32811;52.382;5.270;2022-07-23T04:08:13;1.80;;;0.88;;
47053;SDS011;32811;52.382;5.270;2022-07-23T04:10:39;2.22;;;1.00;;
47053;SDS011;32811;52.382;5.270;2022-07-23T04:13:06;1.20;;;0.82;;
47053;SDS011;32811;52.382;5.270;2022-07-23T04:15:32;1.70;;;0.93;;
47053;SDS011;32811;52.382;5.270;2022-07-23T04:17:59;1.75;;;0.77;;
47053;SDS011;32811;52.382;5.270;2022-07-23T04:20:25;0.70;;;0.68;;
47053;SDS011;32811;52.382;5.270;2022-07-23T04:22:52;1.48;;;0.73;;
47053;SDS011;32811;52.382;5.270;2022-07-23T04:25:18;1.55;;;1.02;;
47053;SDS011;32811;52.382;5.270;2022-07-23T04:27:45;1.10;;;0.73;;
47053;SDS011;32811;52.382;5.270;2022-07-23T04:30:12;3.35;;;0.93;;
47053;SDS011;32811;52.382;5.270;2022-07-23T04:32:38;3.03;;;0.98;;
47053;SDS011;32811;52.382;5.270;2022-07-23T04:35:05;1.63;;;0.80;;
47053;SDS011;32811;52.382;5.270;2022-07-23T04:37:31;2.67;;;1.25;;
47053;SDS011;32811;52.382;5.270;2022-07-23T04:39:58;1.52;;;1.20;;
47053;SDS011;32811;52.382;5.270;2022-07-23T04:42:24;1.38;;;1.05;;
47053;SDS011;32811;52.382;5.270;2022-07-23T04:44:51;3.83;;;0.80;;
47053;SDS011;32811;52.382;5.270;2022-07-23T04:47:17;1.90;;;0.93;;
47053;SDS011;32811;52.382;5.270;2022-07-23T04:49:44;4.20;;;1.30;;
47053;SDS011;32811;52.382;5.270;2022-07-23T04:52:10;3.30;;;1.17;;
47053;SDS011;32811;52.382;5.270;2022-07-23T04:54:37;4.10;;;1.10;;
47053;SDS011;32811;52.382;5.270;2022-07-23T04:57:03;3.45;;;1.10;;
47053;SDS011;32811;52.382;5.270;2022-07-23T04:59:30;1.85;;;1.10;;
47053;SDS011;32811;52.382;5.270;2022-07-23T05:01:57;2.40;;;1.20;;
47053;SDS011;32811;52.382;5.270;2022-07-23T05:04:23;3.05;;;1.63;;
47053;SDS011;32811;52.382;5.270;2022-07-23T05:06:50;2.60;;;1.00;;
47053;SDS011;32811;52.382;5.270;2022-07-23T05:09:16;2.45;;;0.95;;
47053;SDS011;32811;52.382;5.270;2022-07-23T05:11:43;1.63;;;1.23;;
47053;SDS011;32811;52.382;5.270;2022-07-23T05:14:10;2.72;;;1.00;;
47053;SDS011;32811;52.382;5.270;2022-07-23T05:16:38;1.85;;;1.15;;
47053;SDS011;32811;52.382;5.270;2022-07-23T05:19:05;1.30;;;1.00;;
47053;SDS011;32811;52.382;5.270;2022-07-23T05:21:31;4.45;;;1.33;;
47053;SDS011;32811;52.382;5.270;2022-07-23T05:23:58;1.20;;;0.77;;
47053;SDS011;32811;52.382;5.270;2022-07-23T05:26:25;1.40;;;1.00;;
47053;SDS011;32811;52.382;5.270;2022-07-23T05:28:53;2.22;;;1.00;;
47053;SDS011;32811;52.382;5.270;2022-07-23T05:31:19;3.33;;;1.65;;
47053;SDS011;32811;52.382;5.270;2022-07-23T05:33:46;1.55;;;0.82;;
47053;SDS011;32811;52.382;5.270;2022-07-23T05:36:13;1.30;;;0.60;;
47053;SDS011;32811;52.382;5.270;2022-07-23T05:38:39;1.35;;;0.40;;
47053;SDS011;32811;52.382;5.270;2022-07-23T05:41:06;1.63;;;0.45;;
47053;SDS011;32811;52.382;5.270;2022-07-23T05:43:33;4.07;;;0.60;;
47053;SDS011;32811;52.382;5.270;2022-07-23T05:45:59;1.50;;;0.30;;
47053;SDS011;32811;52.382;5.270;2022-07-23T05:48:26;3.58;;;0.57;;
47053;SDS011;32811;52.382;5.270;2022-07-23T05:50:52;1.23;;;0.35;;
47053;SDS011;32811;52.382;5.270;2022-07-23T05:53:19;0.13;;;0.10;;
47053;SDS011;32811;52.382;5.270;2022-07-23T05:55:46;0.40;;;0.30;;
47053;SDS011;32811;52.382;5.270;2022-07-23T05:58:12;4.00;;;0.55;;
47053;SDS011;32811;52.382;5.270;2022-07-23T06:00:39;1.42;;;0.40;;
47053;SDS011;32811;52.382;5.270;2022-07-23T06:03:05;1.10;;;0.30;;
47053;SDS011;32811;52.382;5.270;2022-07-23T06:05:32;2.00;;;0.50;;
47053;SDS011;32811;52.382;5.270;2022-07-23T06:07:59;2.75;;;0.47;;
47053;SDS011;32811;52.382;5.270;2022-07-23T06:10:25;3.60;;;0.50;;
47053;SDS011;32811;52.382;5.270;2022-07-23T06:12:52;1.70;;;0.40;;
47053;SDS011;32811;52.382;5.270;2022-07-23T06:15:26;0.80;;;0.38;;
47053;SDS011;32811;52.382;5.270;2022-07-23T06:17:53;1.63;;;0.40;;
47053;SDS011;32811;52.382;5.270;2022-07-23T06:20:20;1.95;;;0.22;;
47053;SDS011;32811;52.382;5.270;2022-07-23T06:22:46;3.13;;;0.38;;
47053;SDS011;32811;52.382;5.270;2022-07-23T06:25:13;2.10;;;0.35;;
47053;SDS011;32811;52.382;5.270;2022-07-23T06:27:45;1.02;;;0.32;;
47053;SDS011;32811;52.382;5.270;2022-07-23T06:30:12;1.45;;;0.43;;
47053;SDS011;32811;52.382;5.270;2022-07-23T06:32:42;1.33;;;0.30;;
47053;SDS011;32811;52.382;5.270;2022-07-23T06:35:09;1.27;;;0.10;;
47053;SDS011;32811;52.382;5.270;2022-07-23T06:37:36;0.75;;;0.20;;
47053;SDS011;32811;52.382;5.270;2022-07-23T06:40:03;1.50;;;0.20;;
47053;SDS011;32811;52.382;5.270;2022-07-23T06:42:31;0.73;;;0.40;;
47053;SDS011;32811;52.382;5.270;2022-07-23T06:44:58;1.83;;;0.60;;
47053;SDS011;32811;52.382;5.270;2022-07-23T06:47:24;3.63;;;0.38;;
47053;SDS011;32811;52.382;5.270;2022-07-23T06:49:51;0.65;;;0.20;;
47053;SDS011;32811;52.382;5.270;2022-07-23T06:52:17;0.77;;;0.20;;
47053;SDS011;32811;52.382;5.270;2022-07-23T06:54:44;1.08;;;0.30;;
47053;SDS011;32811;52.382;5.270;2022-07-23T06:57:11;2.08;;;0.40;;
47053;SDS011;32811;52.382;5.270;2022-07-23T06:59:37;1.95;;;0.50;;
47053;SDS011;32811;52.382;5.270;2022-07-23T07:02:07;1.17;;;0.20;;
47053;SDS011;32811;52.382;5.270;2022-07-23T07:04:34;0.43;;;0.15;;
47053;SDS011;32811;52.382;5.270;2022-07-23T07:07:01;1.27;;;0.40;;
47053;SDS011;32811;52.382;5.270;2022-07-23T07:09:28;3.83;;;0.85;;
47053;SDS011;32811;52.382;5.270;2022-07-23T07:11:55;0.35;;;0.17;;
47053;SDS011;32811;52.382;5.270;2022-07-23T07:14:21;1.50;;;0.38;;
47053;SDS011;32811;52.382;5.270;2022-07-23T07:16:48;0.68;;;0.20;;
47053;SDS011;32811;52.382;5.270;2022-07-23T07:19:14;0.75;;;0.22;;
47053;SDS011;32811;52.382;5.270;2022-07-23T07:21:41;1.42;;;0.60;;
47053;SDS011;32811;52.382;5.270;2022-07-23T07:24:07;1.95;;;0.22;;
47053;SDS011;32811;52.382;5.270;2022-07-23T07:26:34;1.88;;;0.88;;
47053;SDS011;32811;52.382;5.270;2022-07-23T07:29:01;0.50;;;0.20;;
47053;SDS011;32811;52.382;5.270;2022-07-23T07:31:28;2.28;;;0.50;;
47053;SDS011;32811;52.382;5.270;2022-07-23T07:33:54;0.77;;;0.13;;
47053;SDS011;32811;52.382;5.270;2022-07-23T07:36:23;2.78;;;0.22;;
47053;SDS011;32811;52.382;5.270;2022-07-23T07:38:50;0.20;;;0.20;;
47053;SDS011;32811;52.382;5.270;2022-07-23T07:41:16;0.60;;;0.30;;
47053;SDS011;32811;52.382;5.270;2022-07-23T07:43:43;3.33;;;0.90;;
47053;SDS011;32811;52.382;5.270;2022-07-23T07:46:10;1.15;;;0.25;;
47053;SDS011;32811;52.382;5.270;2022-07-23T07:48:37;1.75;;;0.40;;
47053;SDS011;32811;52.382;5.270;2022-07-23T07:51:04;1.10;;;0.20;;
47053;SDS011;32811;52.382;5.270;2022-07-23T07:53:31;1.33;;;0.40;;
47053;SDS011;32811;52.382;5.270;2022-07-23T07:55:58;2.05;;;0.40;;
47053;SDS011;32811;52.382;5.270;2022-07-23T07:58:25;0.93;;;0.30;;
47053;SDS011;32811;52.382;5.270;2022-07-23T08:00:51;1.20;;;0.30;;
47053;SDS011;32811;52.382;5.270;2022-07-23T08:03:18;1.10;;;0.28;;
47053;SDS011;32811;52.382;5.270;2022-07-23T08:05:45;1.60;;;0.60;;
47053;SDS011;32811;52.382;5.270;2022-07-23T08:08:11;1.75;;;0.28;;
47053;SDS011;32811;52.382;5.270;2022-07-23T08:10:41;0.85;;;0.30;;
47053;SDS011;32811;52.382;5.270;2022-07-23T08:13:08;0.95;;;0.57;;
47053;SDS011;32811;52.382;5.270;2022-07-23T08:15:42;0.65;;;0.20;;
47053;SDS011;32811;52.382;5.270;2022-07-23T08:18:12;3.33;;;0.30;;
47053;SDS011;32811;52.382;5.270;2022-07-23T08:20:38;2.10;;;0.52;;
47053;SDS011;32811;52.382;5.270;2022-07-23T08:23:06;1.88;;;0.40;;
47053;SDS011;32811;52.382;5.270;2022-07-23T08:25:36;3.30;;;0.40;;
47053;SDS011;32811;52.382;5.270;2022-07-23T08:28:05;1.23;;;0.20;;
47053;SDS011;32811;52.382;5.270;2022-07-23T08:30:33;2.30;;;0.20;;
47053;SDS011;32811;52.382;5.270;2022-07-23T08:33:08;2.17;;;0.30;;
47053;SDS011;32811;52.382;5.270;2022-07-23T08:35:59;0.77;;;0.30;;
47053;SDS011;32811;52.382;5.270;2022-07-23T08:38:26;2.33;;;0.30;;
47053;SDS011;32811;52.382;5.270;2022-07-23T08:40:54;2.17;;;0.50;;
47053;SDS011;32811;52.382;5.270;2022-07-23T08:43:24;1.73;;;0.30;;
47053;SDS011;32811;52.382;5.270;2022-07-23T08:45:54;1.10;;;0.17;;
47053;SDS011;32811;52.382;5.270;2022-07-23T08:48:23;1.08;;;0.32;;
47053;SDS011;32811;52.382;5.270;2022-07-23T08:50:52;1.38;;;0.40;;
47053;SDS011;32811;52.382;5.270;2022-07-23T08:53:23;2.88;;;0.30;;
47053;SDS011;32811;52.382;5.270;2022-07-23T08:55:52;0.82;;;0.20;;
47053;SDS011;32811;52.382;5.270;2022-07-23T08:58:21;0.60;;;0.13;;
47053;SDS011;32811;52.382;5.270;2022-07-23T09:00:53;0.98;;;0.35;;
47053;SDS011;32811;52.382;5.270;2022-07-23T09:03:20;1.25;;;0.30;;
47053;SDS011;32811;52.382;5.270;2022-07-23T09:05:49;1.65;;;0.20;;
47053;SDS011;32811;52.382;5.270;2022-07-23T09:08:20;1.67;;;0.30;;
47053;SDS011;32811;52.382;5.270;2022-07-23T09:16:04;2.15;;;0.45;;
47053;SDS011;32811;52.382;5.270;2022-07-23T09:18:35;0.90;;;0.20;;
47053;SDS011;32811;52.382;5.270;2022-07-23T09:21:08;1.70;;;0.30;;
47053;SDS011;32811;52.382;5.270;2022-07-23T09:26:23;1.80;;;0.40;;
47053;SDS011;32811;52.382;5.270;2022-07-23T09:36:41;3.00;;;0.40;;
47053;SDS011;32811;52.382;5.270;2022-07-23T09:39:08;2.55;;;0.85;;
47053;SDS011;32811;52.382;5.270;2022-07-23T09:41:43;0.80;;;0.20;;
47053;SDS011;32811;52.382;5.270;2022-07-23T09:44:13;1.02;;;0.25;;
47053;SDS011;32811;52.382;5.270;2022-07-23T09:46:48;1.13;;;0.20;;
47053;SDS011;32811;52.382;5.270;2022-07-23T09:49:17;1.60;;;0.30;;
47053;SDS011;32811;52.382;5.270;2022-07-23T09:51:55;1.42;;;0.63;;
47053;SDS011;32811;52.382;5.270;2022-07-23T09:56:53;1.75;;;0.60;;
47053;SDS011;32811;52.382;5.270;2022-07-23T09:59:37;1.65;;;0.38;;
47053;SDS011;32811;52.382;5.270;2022-07-23T10:02:05;0.65;;;0.20;;
47053;SDS011;32811;52.382;5.270;2022-07-23T10:04:34;1.75;;;0.30;;
47053;SDS011;32811;52.382;5.270;2022-07-23T10:07:03;0.20;;;0.20;;
47053;SDS011;32811;52.382;5.270;2022-07-23T10:09:32;1.38;;;0.32;;
47053;SDS011;32811;52.382;5.270;2022-07-23T10:12:01;2.17;;;0.30;;
47053;SDS011;32811;52.382;5.270;2022-07-23T10:14:39;2.78;;;0.40;;
47053;SDS011;32811;52.382;5.270;2022-07-23T10:17:06;1.98;;;0.30;;
47053;SDS011;32811;52.382;5.270;2022-07-23T10:19:34;0.75;;;0.30;;
47053;SDS011;32811;52.382;5.270;2022-07-23T10:22:04;2.15;;;0.30;;
47053;SDS011;32811;52.382;5.270;2022-07-23T10:32:17;4.25;;;1.48;;
47053;SDS011;32811;52.382;5.270;2022-07-23T10:34:58;2.40;;;0.60;;
47053;SDS011;32811;52.382;5.270;2022-07-23T10:37:46;1.83;;;0.30;;
47053;SDS011;32811;52.382;5.270;2022-07-23T10:40:21;0.63;;;0.30;;
47053;SDS011;32811;52.382;5.270;2022-07-23T10:42:48;0.95;;;0.40;;
47053;SDS011;32811;52.382;5.270;2022-07-23T10:45:25;0.57;;;0.17;;
47053;SDS011;32811;52.382;5.270;2022-07-23T10:47:52;1.85;;;0.30;;
47053;SDS011;32811;52.382;5.270;2022-07-23T10:50:21;4.75;;;0.40;;
47053;SDS011;32811;52.382;5.270;2022-07-23T10:58:01;0.85;;;0.25;;
47053;SDS011;32811;52.382;5.270;2022-07-23T11:00:30;0.82;;;0.30;;
47053;SDS011;32811;52.382;5.270;2022-07-23T11:03:44;3.00;;;0.60;;
47053;SDS011;32811;52.382;5.270;2022-07-23T11:05:54;0.80;;;0.30;;
47053;SDS011;32811;52.382;5.270;2022-07-23T11:08:21;0.57;;;0.30;;
47053;SDS011;32811;52.382;5.270;2022-07-23T11:10:51;1.30;;;0.60;;
47053;SDS011;32811;52.382;5.270;2022-07-23T11:31:54;0.80;;;0.43;;
47053;SDS011;32811;52.382;5.270;2022-07-23T11:34:32;1.33;;;0.40;;
47053;SDS011;32811;52.382;5.270;2022-07-23T11:37:00;0.90;;;0.40;;
47053;SDS011;32811;52.382;5.270;2022-07-23T11:39:28;1.02;;;0.30;;
47053;SDS011;32811;52.382;5.270;2022-07-23T11:41:57;1.17;;;0.20;;
47053;SDS011;32811;52.382;5.270;2022-07-23T11:44:25;1.35;;;0.40;;
47053;SDS011;32811;52.382;5.270;2022-07-23T11:47:06;1.45;;;0.35;;
47053;SDS011;32811;52.382;5.270;2022-07-23T11:49:35;2.30;;;0.68;;
47053;SDS011;32811;52.382;5.270;2022-07-23T11:52:02;1.85;;;0.30;;
47053;SDS011;32811;52.382;5.270;2022-07-23T11:54:37;0.93;;;0.47;;
47053;SDS011;32811;52.382;5.270;2022-07-23T11:57:24;2.15;;;0.55;;
47053;SDS011;32811;52.382;5.270;2022-07-23T12:00:07;2.33;;;0.90;;
47053;SDS011;32811;52.382;5.270;2022-07-23T12:02:38;2.50;;;1.00;;
47053;SDS011;32811;52.382;5.270;2022-07-23T12:05:29;1.23;;;0.75;;
47053;SDS011;32811;52.382;5.270;2022-07-23T12:07:58;3.13;;;1.20;;
47053;SDS011;32811;52.382;5.270;2022-07-23T12:10:37;4.05;;;1.23;;
47053;SDS011;32811;52.382;5.270;2022-07-23T12:13:06;3.10;;;1.50;;
47053;SDS011;32811;52.382;5.270;2022-07-23T12:15:48;3.22;;;1.40;;
47053;SDS011;32811;52.382;5.270;2022-07-23T12:18:21;4.03;;;1.02;;
47053;SDS011;32811;52.382;5.270;2022-07-23T12:20:52;2.35;;;0.90;;
47053;SDS011;32811;52.382;5.270;2022-07-23T12:23:21;4.25;;;1.00;;
47053;SDS011;32811;52.382;5.270;2022-07-23T12:25:49;2.08;;;0.80;;
47053;SDS011;32811;52.382;5.270;2022-07-23T12:28:21;1.35;;;1.05;;
47053;SDS011;32811;52.382;5.270;2022-07-23T12:30:54;2.00;;;0.98;;
47053;SDS011;32811;52.382;5.270;2022-07-23T12:33:26;2.53;;;1.30;;
47053;SDS011;32811;52.382;5.270;2022-07-23T12:35:58;2.95;;;1.25;;
47053;SDS011;32811;52.382;5.270;2022-07-23T12:38:27;2.15;;;1.00;;
47053;SDS011;32811;52.382;5.270;2022-07-23T12:41:02;2.60;;;1.02;;
47053;SDS011;32811;52.382;5.270;2022-07-23T12:43:33;2.47;;;1.20;;
47053;SDS011;32811;52.382;5.270;2022-07-23T12:51:19;2.50;;;1.00;;
47053;SDS011;32811;52.382;5.270;2022-07-23T12:54:07;4.80;;;0.75;;
47053;SDS011;32811;52.382;5.270;2022-07-23T12:56:36;1.80;;;1.13;;
47053;SDS011;32811;52.382;5.270;2022-07-23T12:59:09;1.48;;;0.80;;
47053;SDS011;32811;52.382;5.270;2022-07-23T13:01:38;7.50;;;1.08;;
47053;SDS011;32811;52.382;5.270;2022-07-23T13:04:07;2.22;;;0.80;;
47053;SDS011;32811;52.382;5.270;2022-07-23T13:06:46;2.67;;;0.82;;
47053;SDS011;32811;52.382;5.270;2022-07-23T13:09:18;2.90;;;1.05;;
47053;SDS011;32811;52.382;5.270;2022-07-23T13:11:46;3.38;;;0.90;;
47053;SDS011;32811;52.382;5.270;2022-07-23T13:14:15;2.95;;;0.98;;
47053;SDS011;32811;52.382;5.270;2022-07-23T13:16:47;1.65;;;0.85;;
47053;SDS011;32811;52.382;5.270;2022-07-23T13:19:14;5.05;;;0.90;;
47053;SDS011;32811;52.382;5.270;2022-07-23T13:21:44;3.60;;;0.85;;
47053;SDS011;32811;52.382;5.270;2022-07-23T13:24:12;2.45;;;1.10;;
47053;SDS011;32811;52.382;5.270;2022-07-23T13:26:39;2.20;;;0.70;;
47053;SDS011;32811;52.382;5.270;2022-07-23T13:29:06;2.10;;;0.60;;
47053;SDS011;32811;52.382;5.270;2022-07-23T13:31:35;2.40;;;1.10;;
47053;SDS011;32811;52.382;5.270;2022-07-23T13:34:04;1.38;;;0.75;;
47053;SDS011;32811;52.382;5.270;2022-07-23T13:36:30;5.32;;;0.90;;
47053;SDS011;32811;52.382;5.270;2022-07-23T13:38:57;1.58;;;0.93;;
47053;SDS011;32811;52.382;5.270;2022-07-23T13:41:25;3.53;;;0.95;;
47053;SDS011;32811;52.382;5.270;2022-07-23T13:43:51;4.40;;;1.48;;
47053;SDS011;32811;52.382;5.270;2022-07-23T13:46:18;1.77;;;0.82;;
47053;SDS011;32811;52.382;5.270;2022-07-23T13:48:46;1.42;;;0.77;;
47053;SDS011;32811;52.382;5.270;2022-07-23T13:51:13;3.15;;;0.57;;
47053;SDS011;32811;52.382;5.270;2022-07-23T13:53:39;2.83;;;1.05;;
47053;SDS011;32811;52.382;5.270;2022-07-23T13:56:06;5.50;;;1.25;;
47053;SDS011;32811;52.382;5.270;2022-07-23T13:58:33;2.92;;;1.10;;
47053;SDS011;32811;52.382;5.270;2022-07-23T14:00:59;3.30;;;0.93;;
47053;SDS011;32811;52.382;5.270;2022-07-23T14:03:26;1.52;;;0.90;;
47053;SDS011;32811;52.382;5.270;2022-07-23T14:05:53;3.35;;;1.10;;
47053;SDS011;32811;52.382;5.270;2022-07-23T14:08:21;2.75;;;1.10;;
47053;SDS011;32811;52.382;5.270;2022-07-23T14:10:48;4.47;;;1.00;;
47053;SDS011;32811;52.382;5.270;2022-07-23T14:13:15;2.08;;;1.10;;
47053;SDS011;32811;52.382;5.270;2022-07-23T14:15:42;3.15;;;0.95;;
47053;SDS011;32811;52.382;5.270;2022-07-23T14:18:08;1.90;;;0.85;;
47053;SDS011;32811;52.382;5.270;2022-07-23T14:20:35;5.28;;;1.13;;
47053;SDS011;32811;52.382;5.270;2022-07-23T14:23:02;3.03;;;1.38;;
47053;SDS011;32811;52.382;5.270;2022-07-23T14:25:31;1.92;;;0.70;;
47053;SDS011;32811;52.382;5.270;2022-07-23T14:27:59;1.25;;;0.75;;
47053;SDS011;32811;52.382;5.270;2022-07-23T14:30:25;1.83;;;0.68;;
47053;SDS011;32811;52.382;5.270;2022-07-23T14:32:59;2.88;;;1.05;;
47053;SDS011;32811;52.382;5.270;2022-07-23T14:35:26;2.95;;;0.95;;
47053;SDS011;32811;52.382;5.270;2022-07-23T14:37:53;1.50;;;0.77;;
47053;SDS011;32811;52.382;5.270;2022-07-23T14:40:20;1.40;;;0.82;;
47053;SDS011;32811;52.382;5.270;2022-07-23T14:42:48;1.20;;;0.80;;
47053;SDS011;32811;52.382;5.270;2022-07-23T14:45:15;1.92;;;0.80;;
47053;SDS011;32811;52.382;5.270;2022-07-23T14:47:44;2.10;;;0.57;;
47053;SDS011;32811;52.382;5.270;2022-07-23T14:50:31;1.88;;;0.73;;
47053;SDS011;32811;52.382;5.270;2022-07-23T14:52:57;2.63;;;1.20;;
47053;SDS011;32811;52.382;5.270;2022-07-23T14:55:24;4.53;;;0.95;;
47053;SDS011;32811;52.382;5.270;2022-07-23T14:57:51;2.33;;;0.93;;
47053;SDS011;32811;52.382;5.270;2022-07-23T15:00:18;4.03;;;1.20;;
47053;SDS011;32811;52.382;5.270;2022-07-23T15:02:49;1.98;;;0.90;;
47053;SDS011;32811;52.382;5.270;2022-07-23T15:05:21;2.75;;;1.00;;
47053;SDS011;32811;52.382;5.270;2022-07-23T15:07:48;4.10;;;0.98;;
47053;SDS011;32811;52.382;5.270;2022-07-23T15:10:15;2.42;;;1.10;;
47053;SDS011;32811;52.382;5.270;2022-07-23T15:12:47;2.75;;;1.10;;
47053;SDS011;32811;52.382;5.270;2022-07-23T15:15:15;1.95;;;0.82;;
47053;SDS011;32811;52.382;5.270;2022-07-23T15:17:41;2.83;;;0.95;;
47053;SDS011;32811;52.382;5.270;2022-07-23T15:20:08;4.63;;;1.23;;
47053;SDS011;32811;52.382;5.270;2022-07-23T15:22:35;3.20;;;2.00;;
47053;SDS011;32811;52.382;5.270;2022-07-23T15:25:03;3.13;;;1.20;;
47053;SDS011;32811;52.382;5.270;2022-07-23T15:27:30;3.17;;;1.00;;
47053;SDS011;32811;52.382;5.270;2022-07-23T15:29:56;2.70;;;0.75;;
47053;SDS011;32811;52.382;5.270;2022-07-23T15:32:23;1.80;;;1.10;;
47053;SDS011;32811;52.382;5.270;2022-07-23T15:34:53;2.15;;;1.10;;
47053;SDS011;32811;52.382;5.270;2022-07-23T15:37:20;2.90;;;0.85;;
47053;SDS011;32811;52.382;5.270;2022-07-23T15:39:50;1.15;;;0.60;;
47053;SDS011;32811;52.382;5.270;2022-07-23T15:42:18;1.98;;;0.90;;
47053;SDS011;32811;52.382;5.270;2022-07-23T15:44:45;1.95;;;0.60;;
47053;SDS011;32811;52.382;5.270;2022-07-23T15:47:13;1.60;;;0.77;;
47053;SDS011;32811;52.382;5.270;2022-07-23T15:49:42;2.85;;;0.80;;